TimeEDT,TemperatureF,Dew PointF,Humidity,Sea Level PressureIn,VisibilityMPH,Wind Direction,Wind SpeedMPH,Gust SpeedMPH,PrecipitationIn,Events,Conditions,WindDirDegrees,DateUTC
12:22 AM,60.8,60.8,100,29.95,3.0,ESE,6.9,-,N/A,,Overcast,120,2012-10-03 04:22:00
12:56 AM,61.0,60.1,97,29.93,6.0,ESE,5.8,-,N/A,,Overcast,110,2012-10-03 04:56:00
1:56 AM,61.0,60.1,97,29.93,6.0,ESE,6.9,-,N/A,,Overcast,110,2012-10-03 05:56:00
2:56 AM,61.0,60.1,97,29.94,8.0,ESE,6.9,-,N/A,,Overcast,120,2012-10-03 06:56:00
3:56 AM,61.0,59.0,93,29.95,4.0,East,4.6,-,N/A,,Overcast,100,2012-10-03 07:56:00
4:11 AM,60.8,59.0,94,29.97,2.5,East,5.8,-,N/A,,Overcast,100,2012-10-03 08:11:00
4:21 AM,60.8,59.0,94,29.97,1.0,ESE,4.6,-,N/A,,Overcast,110,2012-10-03 08:21:00
4:28 AM,60.8,59.0,94,29.98,1.2,East,3.5,-,N/A,,Overcast,100,2012-10-03 08:28:00
4:34 AM,60.8,59.0,94,29.98,3.0,East,4.6,-,N/A,,Overcast,100,2012-10-03 08:34:00
4:56 AM,61.0,60.1,97,29.96,3.0,Calm,Calm,-,N/A,,Overcast,0,2012-10-03 08:56:00
5:56 AM,62.1,60.1,93,29.97,6.0,East,4.6,-,N/A,,Overcast,90,2012-10-03 09:56:00
6:23 AM,60.8,59.0,94,30.00,7.0,Calm,Calm,-,N/A,,Scattered Clouds,0,2012-10-03 10:23:00
6:38 AM,60.8,60.8,100,30.01,9.0,Calm,Calm,-,N/A,,Mostly Cloudy,0,2012-10-03 10:38:00
7:09 AM,62.6,60.8,94,30.02,10.0,Calm,Calm,-,N/A,,Overcast,0,2012-10-03 11:09:00
7:51 AM,62.6,60.8,94,30.03,10.0,Calm,Calm,-,N/A,,Overcast,0,2012-10-03 11:51:00
7:56 AM,63.0,60.1,90,30.02,10.0,SSW,3.5,-,N/A,,Overcast,200,2012-10-03 11:56:00
8:51 AM,64.4,62.6,94,30.05,10.0,SW,4.6,-,N/A,,Overcast,230,2012-10-03 12:51:00
8:56 AM,64.9,62.1,90,30.04,10.0,WSW,5.8,-,N/A,,Overcast,240,2012-10-03 12:56:00
9:39 AM,66.2,62.6,88,30.07,10.0,WSW,10.4,-,N/A,,Overcast,240,2012-10-03 13:39:00
9:56 AM,66.9,62.1,84,30.06,10.0,SW,11.5,-,N/A,,Overcast,230,2012-10-03 13:56:00
10:54 AM,68.0,60.8,78,30.10,10.0,WSW,11.5,-,N/A,,Overcast,250,2012-10-03 14:54:00
10:56 AM,68.0,61.0,78,30.07,10.0,West,13.8,-,N/A,,Overcast,260,2012-10-03 14:56:00
11:56 AM,70.0,61.0,73,30.06,10.0,West,8.1,-,N/A,,Mostly Cloudy,260,2012-10-03 15:56:00
12:56 PM,72.0,59.0,64,30.06,10.0,West,12.7,-,N/A,,Partly Cloudy,270,2012-10-03 16:56:00
1:56 PM,71.1,59.0,66,30.06,10.0,West,11.5,-,N/A,,Overcast,270,2012-10-03 17:56:00
2:56 PM,71.1,57.9,63,30.07,10.0,WSW,8.1,-,N/A,,Mostly Cloudy,240,2012-10-03 18:56:00
3:56 PM,71.1,57.9,63,30.07,10.0,SW,11.5,-,N/A,,Mostly Cloudy,230,2012-10-03 19:56:00
4:56 PM,70.0,57.0,63,30.08,10.0,SW,10.4,-,N/A,,Mostly Cloudy,220,2012-10-03 20:56:00
5:56 PM,69.1,57.0,65,30.10,10.0,SW,6.9,-,N/A,,Scattered Clouds,220,2012-10-03 21:56:00
6:56 PM,64.9,57.9,78,30.11,10.0,SSW,3.5,-,N/A,,Clear,200,2012-10-03 22:56:00
7:56 PM,64.0,57.9,80,30.12,10.0,Calm,Calm,-,N/A,,Clear,0,2012-10-03 23:56:00
8:56 PM,64.0,57.9,80,30.12,10.0,SSW,3.5,-,N/A,,Clear,200,2012-10-04 00:56:00
9:56 PM,63.0,57.9,84,30.13,10.0,Calm,Calm,-,N/A,,Clear,0,2012-10-04 01:56:00
10:56 PM,62.1,57.9,86,30.14,10.0,Calm,Calm,-,N/A,,Clear,0,2012-10-04 02:56:00
11:56 PM,62.1,57.9,86,30.15,10.0,SSW,4.6,-,N/A,,Clear,200,2012-10-04 03:56:00